Time;durP1;ratioP1;P1;durP2;ratioP2;P2;SDS_P1;SDS_P2;PMS_P1;PMS_P2;Temp;Humidity;BMP_temperature;BMP_pressure;BME280_temperature;BME280_humidity;BME280_pressure;Samples;Min_cycle;Max_cycle;Signal;HPM_P1;HPM_P2
2022/04/16 00:01:49;;;;;;;5.45;2.88;;;;;;;;;;5059540;28;20029;-83
2022/04/16 00:04:15;;;;;;;6.22;3.33;;;;;;;;;;5044722;28;20468;-84
2022/04/16 00:06:41;;;;;;;5.97;3.13;;;;;;;;;;5037439;28;20045;-83
2022/04/16 00:09:07;;;;;;;6.75;4.00;;;;;;;;;;5043781;28;20041;-83
2022/04/16 00:11:33;;;;;;;5.93;3.42;;;;;;;;;;5059680;28;20542;-83
2022/04/16 00:13:59;;;;;;;5.88;3.55;;;;;;;;;;5049051;28;20029;-83
2022/04/16 00:16:25;;;;;;;5.78;3.63;;;;;;;;;;5039781;28;20092;-83
2022/04/16 00:18:51;;;;;;;5.88;3.50;;;;;;;;;;5017940;28;20034;-83
2022/04/16 00:21:17;;;;;;;5.57;3.42;;;;;;;;;;5025082;28;20021;-83
2022/04/16 00:23:44;;;;;;;5.68;3.53;;;;;;;;;;5035315;28;20030;-83
2022/04/16 00:26:12;;;;;;;5.25;3.42;;;;;;;;;;5032096;28;20385;-83
2022/04/16 00:28:38;;;;;;;5.85;3.63;;;;;;;;;;5047525;28;20016;-83
2022/04/16 00:31:04;;;;;;;6.10;3.55;;;;;;;;;;5070487;28;20041;-83
2022/04/16 00:33:33;;;;;;;5.50;3.40;;;;;;;;;;5067789;28;20033;-83
2022/04/16 00:36:00;;;;;;;6.30;3.65;;;;;;;;;;5076595;28;20047;-84
2022/04/16 00:38:26;;;;;;;6.03;3.55;;;;;;;;;;5060171;28;20025;-82
2022/04/16 00:40:55;;;;;;;7.00;3.65;;;;;;;;;;5060035;28;20021;-82
2022/04/16 00:43:28;;;;;;;6.63;3.58;;;;;;;;;;5054993;28;20082;-82
2022/04/16 00:45:54;;;;;;;5.75;3.72;;;;;;;;;;5055321;28;20052;-82
2022/04/16 00:48:21;;;;;;;6.78;3.55;;;;;;;;;;5038734;28;20033;-82
2022/04/16 00:50:56;;;;;;;6.90;3.60;;;;;;;;;;5038559;28;20025;-82
2022/04/16 00:53:25;;;;;;;5.75;3.33;;;;;;;;;;5043000;28;20112;-82
2022/04/16 00:55:51;;;;;;;6.30;3.42;;;;;;;;;;5055533;28;20513;-82
2022/04/16 00:58:18;;;;;;;5.70;3.53;;;;;;;;;;5041381;28;20143;-82
2022/04/16 01:00:44;;;;;;;5.75;3.33;;;;;;;;;;5025403;28;20065;-82
2022/04/16 01:03:10;;;;;;;6.30;3.78;;;;;;;;;;5027013;28;20025;-82
2022/04/16 01:05:37;;;;;;;6.35;3.65;;;;;;;;;;5050669;28;20597;-82
2022/04/16 01:08:04;;;;;;;6.60;3.97;;;;;;;;;;5037857;28;20046;-82
2022/04/16 01:10:31;;;;;;;6.78;4.00;;;;;;;;;;5035064;28;20025;-82
2022/04/16 01:12:57;;;;;;;7.50;3.80;;;;;;;;;;5057837;28;20084;-83
2022/04/16 01:15:24;;;;;;;6.07;3.95;;;;;;;;;;5056341;28;20024;-83
2022/04/16 01:17:50;;;;;;;6.20;3.50;;;;;;;;;;5067210;28;20014;-83
2022/04/16 01:20:17;;;;;;;6.50;3.65;;;;;;;;;;5059137;28;20052;-84
2022/04/16 01:22:47;;;;;;;6.22;3.88;;;;;;;;;;5058141;28;20018;-83
2022/04/16 01:25:14;;;;;;;7.18;4.07;;;;;;;;;;5045712;28;20029;-82
2022/04/16 01:27:45;;;;;;;7.40;4.25;;;;;;;;;;5036688;28;20022;-82
2022/04/16 01:30:12;;;;;;;6.63;4.20;;;;;;;;;;5036943;28;20108;-82
2022/04/16 01:32:38;;;;;;;7.30;4.20;;;;;;;;;;5046914;28;20032;-82
2022/04/16 01:35:07;;;;;;;6.45;3.75;;;;;;;;;;5029384;28;20128;-82
2022/04/16 01:37:35;;;;;;;6.78;4.00;;;;;;;;;;5038661;28;20105;-82
2022/04/16 01:40:02;;;;;;;7.43;4.15;;;;;;;;;;5035649;28;20030;-82
2022/04/16 01:42:29;;;;;;;6.72;4.43;;;;;;;;;;5047665;28;20060;-82
2022/04/16 01:44:56;;;;;;;6.30;4.05;;;;;;;;;;5027265;28;20026;-82
2022/04/16 01:47:22;;;;;;;6.80;3.97;;;;;;;;;;5034536;28;20029;-82
2022/04/16 01:49:48;;;;;;;6.72;4.00;;;;;;;;;;5036895;28;20085;-83
2022/04/16 01:52:14;;;;;;;6.30;3.67;;;;;;;;;;5046904;28;20029;-83
2022/04/16 01:54:41;;;;;;;7.05;3.92;;;;;;;;;;5025004;28;20026;-83
2022/04/16 01:57:07;;;;;;;9.10;4.55;;;;;;;;;;5034984;28;20041;-83
2022/04/16 01:59:33;;;;;;;6.40;3.92;;;;;;;;;;5036726;28;20045;-82
2022/04/16 02:01:59;;;;;;;7.40;4.00;;;;;;;;;;5031078;28;20038;-82
2022/04/16 02:04:26;;;;;;;7.78;3.60;;;;;;;;;;5026484;28;20042;-82
2022/04/16 02:06:52;;;;;;;7.25;4.35;;;;;;;;;;5024762;28;20185;-82
2022/04/16 02:09:18;;;;;;;7.88;4.57;;;;;;;;;;5017321;28;20562;-82
2022/04/16 02:11:44;;;;;;;7.10;4.05;;;;;;;;;;5019104;28;20026;-82
2022/04/16 02:14:10;;;;;;;7.18;4.53;;;;;;;;;;5037598;28;20384;-82
2022/04/16 02:16:36;;;;;;;7.50;4.30;;;;;;;;;;5035448;28;20032;-81
2022/04/16 02:19:02;;;;;;;6.82;4.25;;;;;;;;;;5022515;28;20022;-82
2022/04/16 02:21:30;;;;;;;7.47;4.55;;;;;;;;;;5044923;28;20028;-82
2022/04/16 02:23:57;;;;;;;7.47;4.38;;;;;;;;;;5039558;28;20048;-82
2022/04/16 02:26:23;;;;;;;6.65;4.20;;;;;;;;;;5036606;28;20522;-82
2022/04/16 02:28:49;;;;;;;6.50;4.03;;;;;;;;;;5022738;28;20022;-82
2022/04/16 02:31:16;;;;;;;7.05;4.90;;;;;;;;;;5042280;28;20072;-82
2022/04/16 02:33:42;;;;;;;7.53;4.40;;;;;;;;;;5040246;28;20590;-82
2022/04/16 02:36:08;;;;;;;7.25;4.40;;;;;;;;;;5035519;28;20052;-82
2022/04/16 02:38:35;;;;;;;7.30;4.55;;;;;;;;;;5022441;28;20051;-82
2022/04/16 02:41:01;;;;;;;6.22;3.90;;;;;;;;;;5026737;28;20066;-81
2022/04/16 02:43:27;;;;;;;7.13;4.45;;;;;;;;;;5047296;28;20394;-82
2022/04/16 02:48:39;;;;;;;6.50;4.30;;;;;;;;;;5033835;28;20541;-82
2022/04/16 02:51:05;;;;;;;7.97;4.60;;;;;;;;;;5030950;28;20026;-81
2022/04/16 02:53:32;;;;;;;6.85;3.92;;;;;;;;;;5040146;28;20029;-82
2022/04/16 02:55:58;;;;;;;7.63;4.80;;;;;;;;;;5024629;28;20036;-82
2022/04/16 02:58:24;;;;;;;7.10;3.90;;;;;;;;;;5036821;28;20056;-82
2022/04/16 03:00:50;;;;;;;7.05;4.43;;;;;;;;;;5056495;28;20324;-82
2022/04/16 03:03:16;;;;;;;6.65;3.95;;;;;;;;;;5043556;28;20029;-82
2022/04/16 03:05:42;;;;;;;7.70;4.50;;;;;;;;;;5015278;28;20034;-82
2022/04/16 03:08:10;;;;;;;6.88;4.10;;;;;;;;;;5050422;28;20075;-81
2022/04/16 03:10:36;;;;;;;6.65;4.28;;;;;;;;;;5019577;28;20064;-82
2022/04/16 03:13:02;;;;;;;7.30;4.55;;;;;;;;;;5035264;28;20032;-82
2022/04/16 03:18:13;;;;;;;7.40;4.18;;;;;;;;;;5036601;28;20051;-82
2022/04/16 03:20:40;;;;;;;7.05;4.07;;;;;;;;;;5035989;28;20037;-83
2022/04/16 03:23:06;;;;;;;6.65;3.90;;;;;;;;;;5032791;28;20026;-82
2022/04/16 03:25:32;;;;;;;6.75;3.60;;;;;;;;;;5024579;28;20466;-82
2022/04/16 03:27:59;;;;;;;7.40;3.90;;;;;;;;;;5032343;28;20022;-82
2022/04/16 03:30:25;;;;;;;6.85;4.10;;;;;;;;;;5016723;28;20018;-82
2022/04/16 03:32:52;;;;;;;7.18;4.38;;;;;;;;;;5026116;28;20075;-83
2022/04/16 03:35:18;;;;;;;6.55;3.78;;;;;;;;;;5032887;28;20088;-82
2022/04/16 03:37:44;;;;;;;6.32;3.80;;;;;;;;;;5022141;28;20037;-81
2022/04/16 03:40:10;;;;;;;6.07;3.63;;;;;;;;;;5029365;28;20026;-82
2022/04/16 03:42:50;;;;;;;7.00;4.10;;;;;;;;;;5038599;28;20021;-83
2022/04/16 03:45:24;;;;;;;7.80;4.38;;;;;;;;;;5034865;28;20652;-83
2022/04/16 03:47:51;;;;;;;7.20;3.85;;;;;;;;;;5039128;28;20059;-82
2022/04/16 03:50:18;;;;;;;7.32;4.18;;;;;;;;;;5035773;28;20034;-82
2022/04/16 03:52:45;;;;;;;7.28;4.30;;;;;;;;;;5043946;28;20041;-83
2022/04/16 04:00:45;;;;;;;7.93;4.30;;;;;;;;;;5029558;28;20041;-83
2022/04/16 04:03:11;;;;;;;6.75;4.30;;;;;;;;;;5029161;28;20480;-82
2022/04/16 04:05:38;;;;;;;7.15;4.60;;;;;;;;;;5014277;28;20022;-82
2022/04/16 04:08:05;;;;;;;7.65;4.45;;;;;;;;;;5013982;28;20042;-82
2022/04/16 04:10:31;;;;;;;7.80;4.70;;;;;;;;;;5015160;28;20571;-82
2022/04/16 04:12:57;;;;;;;7.68;4.07;;;;;;;;;;5017310;28;20049;-83
2022/04/16 04:15:29;;;;;;;8.70;4.70;;;;;;;;;;5017437;28;20033;-82
2022/04/16 04:18:01;;;;;;;8.73;5.13;;;;;;;;;;5023817;28;20033;-81
2022/04/16 04:20:28;;;;;;;9.55;5.93;;;;;;;;;;5024816;28;20382;-82
2022/04/16 04:22:54;;;;;;;8.25;5.05;;;;;;;;;;5034493;28;20026;-83
2022/04/16 04:25:20;;;;;;;9.00;5.70;;;;;;;;;;5022588;28;20173;-83
2022/04/16 04:27:47;;;;;;;8.85;5.18;;;;;;;;;;5019451;28;20033;-83
2022/04/16 04:30:13;;;;;;;8.63;5.05;;;;;;;;;;5018658;28;20028;-82
2022/04/16 04:32:39;;;;;;;7.32;5.13;;;;;;;;;;5029587;28;20041;-82
2022/04/16 04:35:06;;;;;;;8.20;4.80;;;;;;;;;;5014902;28;20032;-82
2022/04/16 04:37:32;;;;;;;8.50;5.60;;;;;;;;;;5019518;28;20388;-82
2022/04/16 04:39:58;;;;;;;10.00;5.95;;;;;;;;;;5031428;28;20026;-83
2022/04/16 04:42:24;;;;;;;9.25;5.53;;;;;;;;;;5018835;28;20052;-82
2022/04/16 04:44:50;;;;;;;9.45;5.70;;;;;;;;;;5029047;28;20467;-82
2022/04/16 04:47:16;;;;;;;9.75;5.78;;;;;;;;;;5017811;28;20041;-82
2022/04/16 04:49:43;;;;;;;9.32;5.90;;;;;;;;;;5018767;28;20029;-82
2022/04/16 04:52:09;;;;;;;10.35;6.53;;;;;;;;;;5018070;28;20033;-81
2022/04/16 04:54:35;;;;;;;10.63;6.53;;;;;;;;;;5017125;28;20022;-82
2022/04/16 04:57:01;;;;;;;9.32;5.80;;;;;;;;;;5024747;28;20061;-82
2022/04/16 04:59:27;;;;;;;11.73;6.53;;;;;;;;;;5040688;28;20029;-82
2022/04/16 05:01:53;;;;;;;10.05;5.97;;;;;;;;;;5025736;28;20080;-82
2022/04/16 05:04:19;;;;;;;10.32;5.50;;;;;;;;;;5038936;28;20358;-82
2022/04/16 05:06:45;;;;;;;9.05;5.03;;;;;;;;;;5027528;28;20480;-83
2022/04/16 05:09:11;;;;;;;10.00;5.88;;;;;;;;;;5024338;28;20049;-83
2022/04/16 05:11:37;;;;;;;8.70;5.28;;;;;;;;;;5032742;28;20038;-82
2022/04/16 05:14:03;;;;;;;9.52;5.20;;;;;;;;;;5048440;28;20047;-82
2022/04/16 05:16:29;;;;;;;8.95;5.18;;;;;;;;;;5057947;28;20430;-83
2022/04/16 05:18:55;;;;;;;7.90;5.00;;;;;;;;;;5034460;28;20025;-82
2022/04/16 05:21:21;;;;;;;8.18;4.95;;;;;;;;;;5035025;28;20014;-83
2022/04/16 05:23:47;;;;;;;7.80;4.55;;;;;;;;;;5035576;28;20030;-81
2022/04/16 05:26:13;;;;;;;6.05;3.55;;;;;;;;;;5045673;28;20284;-82
2022/04/16 05:28:40;;;;;;;7.15;4.03;;;;;;;;;;5038160;28;20028;-83
2022/04/16 05:31:06;;;;;;;7.05;3.97;;;;;;;;;;5037232;28;20032;-82
2022/04/16 05:36:17;;;;;;;6.95;3.78;;;;;;;;;;5044199;28;20032;-81
2022/04/16 05:38:44;;;;;;;5.82;3.33;;;;;;;;;;5035703;28;20044;-81
2022/04/16 05:41:10;;;;;;;5.63;2.90;;;;;;;;;;5030089;28;20025;-81
2022/04/16 05:43:36;;;;;;;5.32;2.42;;;;;;;;;;5049121;28;20025;-81
2022/04/16 05:46:02;;;;;;;5.57;2.50;;;;;;;;;;5032858;28;20030;-81
2022/04/16 05:48:28;;;;;;;5.03;2.40;;;;;;;;;;5034508;28;20495;-81
2022/04/16 05:50:56;;;;;;;4.53;2.33;;;;;;;;;;5031057;28;20033;-81
2022/04/16 05:53:23;;;;;;;4.85;2.00;;;;;;;;;;5035869;28;20171;-82
2022/04/16 05:55:50;;;;;;;3.70;1.90;;;;;;;;;;5025709;28;20488;-81
2022/04/16 05:58:17;;;;;;;3.80;1.70;;;;;;;;;;5034618;28;20048;-83
2022/04/16 06:00:43;;;;;;;3.97;1.60;;;;;;;;;;5043016;28;20036;-84
2022/04/16 06:03:09;;;;;;;4.25;2.05;;;;;;;;;;5047145;28;20040;-83
2022/04/16 06:05:36;;;;;;;4.55;1.98;;;;;;;;;;5028718;28;20461;-84
2022/04/16 06:08:02;;;;;;;4.07;1.70;;;;;;;;;;5034609;28;20045;-84
2022/04/16 06:10:28;;;;;;;4.03;1.73;;;;;;;;;;5038315;28;20022;-82
2022/04/16 06:12:54;;;;;;;4.10;1.77;;;;;;;;;;5030728;28;20029;-82
2022/04/16 06:15:20;;;;;;;3.92;1.63;;;;;;;;;;5037323;28;20029;-82
2022/04/16 06:17:46;;;;;;;4.40;1.80;;;;;;;;;;5029694;28;20036;-82
2022/04/16 06:20:13;;;;;;;4.18;1.60;;;;;;;;;;5033465;28;20032;-81
2022/04/16 06:22:39;;;;;;;3.55;1.55;;;;;;;;;;5036541;28;20021;-82
2022/04/16 06:25:08;;;;;;;5.65;1.80;;;;;;;;;;5029836;28;20084;-81
2022/04/16 06:27:35;;;;;;;3.28;1.70;;;;;;;;;;5025569;28;20069;-80
2022/04/16 06:30:01;;;;;;;4.25;1.90;;;;;;;;;;5017355;28;20073;-82
2022/04/16 06:32:27;;;;;;;4.15;1.70;;;;;;;;;;5028920;28;20017;-81
2022/04/16 06:34:52;;;;;;;3.50;1.70;;;;;;;;;;5056643;28;20036;-82
2022/04/16 06:37:18;;;;;;;3.90;1.50;;;;;;;;;;5050374;28;20028;-80
2022/04/16 06:39:44;;;;;;;3.20;1.35;;;;;;;;;;5037006;28;20164;-80
2022/04/16 06:42:10;;;;;;;3.55;1.60;;;;;;;;;;5037442;28;20036;-81
2022/04/16 06:44:36;;;;;;;3.70;1.70;;;;;;;;;;5037247;28;20112;-82
2022/04/16 06:47:02;;;;;;;3.55;1.60;;;;;;;;;;5036867;28;20035;-81
2022/04/16 06:49:29;;;;;;;4.40;1.80;;;;;;;;;;5056219;28;20618;-82
2022/04/16 06:51:55;;;;;;;3.95;1.77;;;;;;;;;;5035162;28;20029;-81
2022/04/16 06:54:21;;;;;;;3.90;2.10;;;;;;;;;;5036431;28;20025;-81
2022/04/16 06:56:46;;;;;;;4.00;1.90;;;;;;;;;;5044922;28;20071;-81
2022/04/16 06:59:12;;;;;;;3.97;1.60;;;;;;;;;;5056081;28;20056;-82
2022/04/16 07:01:38;;;;;;;4.18;1.88;;;;;;;;;;5038013;28;20036;-81
2022/04/16 07:04:05;;;;;;;3.92;1.80;;;;;;;;;;5035156;28;20029;-80
2022/04/16 07:06:31;;;;;;;4.05;2.00;;;;;;;;;;5041965;28;20085;-81
2022/04/16 07:08:57;;;;;;;3.53;1.50;;;;;;;;;;5039229;28;20076;-82
2022/04/16 07:11:23;;;;;;;3.58;1.73;;;;;;;;;;5050056;28;20029;-81
2022/04/16 07:13:49;;;;;;;4.57;1.83;;;;;;;;;;5056156;28;20024;-82
2022/04/16 07:16:15;;;;;;;3.97;1.63;;;;;;;;;;5043182;28;20112;-83
2022/04/16 07:18:41;;;;;;;3.53;1.80;;;;;;;;;;5037306;28;20026;-83
2022/04/16 07:21:07;;;;;;;3.78;1.80;;;;;;;;;;5034317;28;20029;-82
2022/04/16 07:23:33;;;;;;;3.90;1.70;;;;;;;;;;5036217;28;20037;-82
2022/04/16 07:25:58;;;;;;;4.70;2.13;;;;;;;;;;5055389;28;20036;-83
2022/04/16 07:28:24;;;;;;;4.15;1.88;;;;;;;;;;5054387;28;20044;-82
2022/04/16 07:30:51;;;;;;;7.30;3.80;;;;;;;;;;5045085;28;20039;-82
2022/04/16 07:33:17;;;;;;;4.93;2.65;;;;;;;;;;5055880;28;20036;-82
2022/04/16 07:35:43;;;;;;;4.47;2.15;;;;;;;;;;5055039;28;20025;-82
2022/04/16 07:38:09;;;;;;;4.35;1.70;;;;;;;;;;5037390;28;20026;-82
2022/04/16 07:40:36;;;;;;;4.20;1.80;;;;;;;;;;5030419;28;20032;-82
2022/04/16 07:43:02;;;;;;;4.25;2.03;;;;;;;;;;5032577;28;20025;-81
2022/04/16 07:45:28;;;;;;;10.48;4.95;;;;;;;;;;5024228;28;20036;-82
2022/04/16 07:47:54;;;;;;;8.18;3.75;;;;;;;;;;5025335;28;20038;-81
2022/04/16 07:50:21;;;;;;;5.10;2.40;;;;;;;;;;5037106;28;20032;-81
2022/04/16 07:52:47;;;;;;;5.30;2.10;;;;;;;;;;5043569;28;20034;-80
2022/04/16 07:55:14;;;;;;;6.45;2.72;;;;;;;;;;5031191;28;20094;-82
2022/04/16 07:57:40;;;;;;;4.80;2.40;;;;;;;;;;5034039;28;20049;-82
2022/04/16 08:00:06;;;;;;;4.85;2.03;;;;;;;;;;5046522;28;20018;-82
2022/04/16 08:02:32;;;;;;;5.20;2.85;;;;;;;;;;5033264;28;20045;-81
2022/04/16 08:04:58;;;;;;;5.80;2.40;;;;;;;;;;5020178;28;20045;-82
2022/04/16 08:07:24;;;;;;;5.40;2.22;;;;;;;;;;5018299;28;20050;-82
2022/04/16 08:09:50;;;;;;;4.68;2.22;;;;;;;;;;5039460;28;20036;-82
2022/04/16 08:12:18;;;;;;;5.72;2.85;;;;;;;;;;5036304;28;20051;-82
2022/04/16 08:14:44;;;;;;;4.20;2.00;;;;;;;;;;5037348;28;20040;-81
2022/04/16 08:17:10;;;;;;;5.65;2.70;;;;;;;;;;5038502;28;20025;-82
2022/04/16 08:19:36;;;;;;;6.20;3.88;;;;;;;;;;5039506;28;20147;-82
2022/04/16 08:22:07;;;;;;;5.65;3.05;;;;;;;;;;5058659;28;20025;-82
2022/04/16 08:24:39;;;;;;;6.03;3.50;;;;;;;;;;5059613;28;20025;-82
2022/04/16 08:27:06;;;;;;;7.25;3.90;;;;;;;;;;5059351;28;20108;-83
2022/04/16 08:29:32;;;;;;;8.32;4.35;;;;;;;;;;5049116;28;20361;-83
2022/04/16 08:31:58;;;;;;;9.55;5.70;;;;;;;;;;5057955;28;20386;-83
2022/04/16 08:34:24;;;;;;;7.95;4.68;;;;;;;;;;5059079;28;20029;-82
2022/04/16 08:36:51;;;;;;;7.85;4.50;;;;;;;;;;5057605;28;20028;-83
2022/04/16 08:39:16;;;;;;;7.60;4.45;;;;;;;;;;5050321;28;20021;-82
2022/04/16 08:41:42;;;;;;;6.00;3.22;;;;;;;;;;5039888;28;20040;-83
2022/04/16 08:44:10;;;;;;;5.13;2.70;;;;;;;;;;5034923;28;20052;-83
2022/04/16 08:46:36;;;;;;;5.35;2.80;;;;;;;;;;5029067;28;20359;-82
2022/04/16 08:49:02;;;;;;;4.30;2.17;;;;;;;;;;5038808;28;20513;-82
2022/04/16 08:51:30;;;;;;;6.38;3.28;;;;;;;;;;5034099;28;20033;-82
2022/04/16 08:53:56;;;;;;;7.78;4.07;;;;;;;;;;5041673;28;20357;-82
2022/04/16 08:56:22;;;;;;;8.40;4.45;;;;;;;;;;5018643;28;20029;-82
2022/04/16 08:58:48;;;;;;;6.95;3.60;;;;;;;;;;5038298;28;20029;-82
2022/04/16 09:01:16;;;;;;;12.00;7.18;;;;;;;;;;5040145;28;20028;-81
2022/04/16 09:03:42;;;;;;;7.68;4.47;;;;;;;;;;5048400;28;20128;-82
2022/04/16 09:06:08;;;;;;;6.53;3.45;;;;;;;;;;5057471;28;20021;-81
2022/04/16 09:08:35;;;;;;;5.25;2.60;;;;;;;;;;5033631;28;20077;-82
2022/04/16 09:11:11;;;;;;;6.32;2.67;;;;;;;;;;5036650;28;20025;-83
2022/04/16 09:13:49;;;;;;;4.63;2.20;;;;;;;;;;5036017;28;20030;-82
2022/04/16 09:16:16;;;;;;;5.82;2.67;;;;;;;;;;5026469;28;20100;-82
2022/04/16 09:18:52;;;;;;;4.40;2.15;;;;;;;;;;5038590;28;20080;-82
2022/04/16 09:21:25;;;;;;;6.10;2.40;;;;;;;;;;5036332;28;20400;-83
2022/04/16 09:23:52;;;;;;;;;;;;;;;;;;5033350;28;20022;-82
2022/04/16 09:26:35;;;;;;;4.85;2.47;;;;;;;;;;5053638;28;19967;-82
2022/04/16 09:29:09;;;;;;;5.93;2.53;;;;;;;;;;5040234;28;20040;-83
2022/04/16 09:31:38;;;;;;;5.47;2.55;;;;;;;;;;5026928;28;20117;-83
2022/04/16 09:34:05;;;;;;;5.07;2.67;;;;;;;;;;5048306;28;20052;-82
2022/04/16 09:36:33;;;;;;;4.88;2.78;;;;;;;;;;5065887;28;20089;-81
2022/04/16 09:39:06;;;;;;;5.00;2.67;;;;;;;;;;5062633;28;20024;-83
2022/04/16 09:41:35;;;;;;;5.25;2.50;;;;;;;;;;5058525;28;20040;-81
2022/04/16 09:44:02;;;;;;;5.28;2.88;;;;;;;;;;5056662;28;20025;-82
2022/04/16 09:46:29;;;;;;;4.60;2.58;;;;;;;;;;5045291;28;20030;-82
2022/04/16 09:49:00;;;;;;;5.03;2.53;;;;;;;;;;5030854;28;20103;-82
2022/04/16 09:51:26;;;;;;;5.68;2.60;;;;;;;;;;5038517;28;20021;-83
2022/04/16 09:53:53;;;;;;;5.05;2.40;;;;;;;;;;5039619;28;20479;-82
2022/04/16 09:56:20;;;;;;;5.20;2.63;;;;;;;;;;5043068;28;20030;-82
2022/04/16 09:58:52;;;;;;;6.70;3.22;;;;;;;;;;5037651;28;20029;-82
2022/04/16 10:01:20;;;;;;;4.82;2.60;;;;;;;;;;5038974;28;20072;-82
2022/04/16 10:03:46;;;;;;;5.07;2.53;;;;;;;;;;5040663;28;20029;-82
2022/04/16 10:06:13;;;;;;;4.60;2.40;;;;;;;;;;5040852;28;20048;-82
2022/04/16 10:08:39;;;;;;;4.68;2.33;;;;;;;;;;5033438;28;20072;-82
2022/04/16 10:11:06;;;;;;;4.88;2.70;;;;;;;;;;5036862;28;20041;-81
2022/04/16 10:13:40;;;;;;;5.57;2.97;;;;;;;;;;5034864;28;20333;-83
2022/04/16 10:16:20;;;;;;;5.10;2.75;;;;;;;;;;5056864;28;20041;-83
2022/04/16 10:18:46;;;;;;;5.57;3.03;;;;;;;;;;5057185;28;20049;-83
2022/04/16 10:21:16;;;;;;;6.07;2.60;;;;;;;;;;5043924;28;20030;-82
2022/04/16 10:23:42;;;;;;;6.68;2.88;;;;;;;;;;5062169;28;20041;-81
2022/04/16 10:26:11;;;;;;;5.95;3.08;;;;;;;;;;5038848;28;20040;-82
2022/04/16 10:28:43;;;;;;;5.57;2.70;;;;;;;;;;5033085;28;20034;-82
2022/04/16 10:31:39;;;;;;;5.82;3.25;;;;;;;;;;5040228;28;20097;-82
2022/04/16 10:34:05;;;;;;;5.20;3.00;;;;;;;;;;5054936;28;20068;-82
2022/04/16 10:36:32;;;;;;;6.10;2.90;;;;;;;;;;5041912;28;20051;-81
2022/04/16 10:38:58;;;;;;;5.93;3.17;;;;;;;;;;5069830;28;20064;-82
2022/04/16 10:41:26;;;;;;;4.97;3.55;;;;;;;;;;5056792;28;20058;-82
2022/04/16 10:43:57;;;;;;;5.78;3.15;;;;;;;;;;5046006;28;20044;-82
2022/04/16 10:46:24;;;;;;;5.35;2.78;;;;;;;;;;5057034;28;20060;-82
2022/04/16 10:48:50;;;;;;;6.00;3.08;;;;;;;;;;5036399;28;20044;-82
2022/04/16 10:51:22;;;;;;;5.97;2.80;;;;;;;;;;5058318;28;20151;-82
2022/04/16 10:53:49;;;;;;;6.07;2.93;;;;;;;;;;5021106;28;20049;-82
2022/04/16 10:56:15;;;;;;;5.50;2.90;;;;;;;;;;5051730;28;20323;-82
2022/04/16 10:58:42;;;;;;;5.05;3.17;;;;;;;;;;5053040;28;20492;-82
2022/04/16 11:01:09;;;;;;;5.43;2.55;;;;;;;;;;5048178;28;20025;-83
2022/04/16 11:03:42;;;;;;;4.82;2.70;;;;;;;;;;5060102;28;20048;-82
2022/04/16 11:06:09;;;;;;;6.40;3.20;;;;;;;;;;5055775;28;20041;-82
2022/04/16 11:08:35;;;;;;;5.53;3.30;;;;;;;;;;5062087;28;20045;-83
2022/04/16 11:11:02;;;;;;;7.35;3.00;;;;;;;;;;5021821;28;20041;-82
2022/04/16 11:13:31;;;;;;;5.82;3.00;;;;;;;;;;5032931;28;20025;-83
2022/04/16 11:16:07;;;;;;;7.10;3.40;;;;;;;;;;5027872;28;20029;-82
2022/04/16 11:18:43;;;;;;;6.55;3.67;;;;;;;;;;5050772;28;20033;-82
2022/04/16 11:21:10;;;;;;;7.00;3.60;;;;;;;;;;5029491;28;20526;-83
2022/04/16 11:23:57;;;;;;;5.97;3.63;;;;;;;;;;5024392;28;20057;-83
2022/04/16 11:34:44;;;;;;;6.07;3.55;;;;;;;;;;5040957;28;20048;-82
2022/04/16 11:37:10;;;;;;;7.22;3.72;;;;;;;;;;5036290;28;20044;-83
2022/04/16 11:39:36;;;;;;;6.75;3.88;;;;;;;;;;5038519;28;20481;-82
2022/04/16 11:42:10;;;;;;;6.15;3.53;;;;;;;;;;5045164;28;20022;-82
2022/04/16 11:44:40;;;;;;;6.60;4.00;;;;;;;;;;5022124;28;20022;-82
2022/04/16 11:47:09;;;;;;;5.75;3.40;;;;;;;;;;5031040;28;20033;-83
2022/04/16 11:49:40;;;;;;;6.45;3.30;;;;;;;;;;5040654;28;20028;-83
2022/04/16 11:52:06;;;;;;;6.57;3.33;;;;;;;;;;5042398;28;20080;-82
2022/04/16 11:54:32;;;;;;;5.85;3.65;;;;;;;;;;5044979;28;20026;-82
2022/04/16 11:56:58;;;;;;;6.07;3.60;;;;;;;;;;5043910;28;20064;-81
2022/04/16 11:59:25;;;;;;;6.13;3.60;;;;;;;;;;5059601;28;20393;-83
2022/04/16 12:01:58;;;;;;;6.28;3.53;;;;;;;;;;5058208;28;20025;-81
2022/04/16 12:04:53;;;;;;;6.35;3.60;;;;;;;;;;5059254;28;20614;-82
2022/04/16 12:07:20;;;;;;;6.00;3.85;;;;;;;;;;5032994;28;20049;-80
2022/04/16 12:09:47;;;;;;;6.20;3.83;;;;;;;;;;5016539;28;20077;-81
2022/04/16 12:12:16;;;;;;;6.40;3.90;;;;;;;;;;5042485;28;20092;-80
2022/04/16 12:14:48;;;;;;;7.18;3.70;;;;;;;;;;5020952;28;20433;-81
2022/04/16 12:17:21;;;;;;;5.47;3.15;;;;;;;;;;5033805;28;20109;-81
2022/04/16 12:19:47;;;;;;;5.60;3.50;;;;;;;;;;5026393;28;20029;-82
2022/04/16 12:22:16;;;;;;;6.22;3.50;;;;;;;;;;5047591;28;20060;-81
2022/04/16 12:24:43;;;;;;;6.10;3.40;;;;;;;;;;5041185;28;20049;-82
2022/04/16 12:27:09;;;;;;;4.90;3.03;;;;;;;;;;5019707;28;20484;-80
2022/04/16 12:29:35;;;;;;;5.88;3.67;;;;;;;;;;5018751;28;20046;-81
2022/04/16 12:32:01;;;;;;;5.82;3.40;;;;;;;;;;5034544;28;20041;-81
2022/04/16 12:34:27;;;;;;;6.15;3.80;;;;;;;;;;5026989;28;20035;-81
2022/04/16 12:36:54;;;;;;;6.60;3.50;;;;;;;;;;5030061;28;20068;-82
2022/04/16 12:39:20;;;;;;;6.47;3.40;;;;;;;;;;5017586;28;20316;-80
2022/04/16 12:41:46;;;;;;;5.85;3.63;;;;;;;;;;5032884;28;20105;-81
2022/04/16 12:44:12;;;;;;;6.45;3.90;;;;;;;;;;5045162;28;20041;-80
2022/04/16 12:46:39;;;;;;;6.68;4.05;;;;;;;;;;5038869;28;20032;-82
2022/04/16 12:49:04;;;;;;;6.43;3.50;;;;;;;;;;5029263;28;20030;-81
2022/04/16 12:51:30;;;;;;;6.88;3.78;;;;;;;;;;5022227;28;20036;-81
2022/04/16 12:53:56;;;;;;;5.82;3.85;;;;;;;;;;5028547;28;20041;-81
2022/04/16 12:56:22;;;;;;;6.10;3.40;;;;;;;;;;5038156;28;20021;-81
2022/04/16 12:58:48;;;;;;;6.43;3.65;;;;;;;;;;5037061;28;20021;-82
2022/04/16 13:01:14;;;;;;;6.15;4.05;;;;;;;;;;5041226;28;20507;-80
2022/04/16 13:03:41;;;;;;;6.57;3.78;;;;;;;;;;5044868;28;20047;-80
2022/04/16 13:06:07;;;;;;;7.50;4.13;;;;;;;;;;5032488;28;20028;-82
2022/04/16 13:08:33;;;;;;;6.00;3.83;;;;;;;;;;5038000;28;20053;-81
2022/04/16 13:11:02;;;;;;;6.03;3.85;;;;;;;;;;5036998;28;20056;-82
2022/04/16 13:13:28;;;;;;;6.07;4.03;;;;;;;;;;5037891;28;20026;-81
2022/04/16 13:15:54;;;;;;;6.28;4.03;;;;;;;;;;5038800;28;20244;-80
2022/04/16 13:18:20;;;;;;;6.43;4.05;;;;;;;;;;5040551;28;20087;-81
2022/04/16 13:20:46;;;;;;;6.85;4.07;;;;;;;;;;5057858;28;20475;-80
2022/04/16 13:23:12;;;;;;;6.47;3.97;;;;;;;;;;5056232;28;20025;-81
2022/04/16 13:25:39;;;;;;;5.97;3.88;;;;;;;;;;5045289;28;20025;-81
2022/04/16 13:28:05;;;;;;;6.47;3.67;;;;;;;;;;5038452;28;20051;-81
2022/04/16 13:30:32;;;;;;;5.63;3.45;;;;;;;;;;5038023;28;20018;-81
2022/04/16 13:32:58;;;;;;;6.47;3.63;;;;;;;;;;5038016;28;20024;-81
2022/04/16 13:35:26;;;;;;;6.20;4.05;;;;;;;;;;5049587;28;20033;-81
2022/04/16 13:37:52;;;;;;;5.78;3.63;;;;;;;;;;5039237;28;20052;-81
2022/04/16 13:43:02;;;;;;;6.45;3.92;;;;;;;;;;5037390;28;20511;-81
2022/04/16 13:45:28;;;;;;;6.53;4.25;;;;;;;;;;5048972;28;20491;-82
2022/04/16 13:47:54;;;;;;;6.88;3.70;;;;;;;;;;5057113;28;20063;-81
2022/04/16 13:50:20;;;;;;;6.20;3.72;;;;;;;;;;5049710;28;20022;-82
2022/04/16 13:52:47;;;;;;;6.25;3.70;;;;;;;;;;5037499;28;20033;-81
2022/04/16 13:55:13;;;;;;;5.38;3.50;;;;;;;;;;5041885;28;20057;-82
2022/04/16 13:57:39;;;;;;;6.07;3.75;;;;;;;;;;5037317;28;20030;-82
2022/04/16 14:00:05;;;;;;;6.03;3.80;;;;;;;;;;5051154;28;20093;-81
2022/04/16 14:02:31;;;;;;;5.93;3.53;;;;;;;;;;5055356;28;20018;-82
2022/04/16 14:07:43;;;;;;;6.03;3.85;;;;;;;;;;5037476;28;20067;-82
2022/04/16 14:10:09;;;;;;;7.47;3.78;;;;;;;;;;5037141;28;20047;-80
2022/04/16 14:12:35;;;;;;;7.00;3.75;;;;;;;;;;5035975;28;20056;-81
2022/04/16 14:15:01;;;;;;;5.75;3.47;;;;;;;;;;5041525;28;20140;-81
2022/04/16 14:17:28;;;;;;;9.43;3.90;;;;;;;;;;5043943;28;20045;-80
2022/04/16 14:19:54;;;;;;;7.93;4.00;;;;;;;;;;5044477;28;20032;-80
2022/04/16 14:22:20;;;;;;;6.60;3.97;;;;;;;;;;5036731;28;20024;-83
2022/04/16 14:24:46;;;;;;;5.97;3.85;;;;;;;;;;5046771;28;20021;-82
2022/04/16 14:27:13;;;;;;;5.78;3.67;;;;;;;;;;5035606;28;20033;-81
2022/04/16 14:29:39;;;;;;;6.00;3.92;;;;;;;;;;5036046;28;20024;-82
2022/04/16 14:32:06;;;;;;;7.78;3.83;;;;;;;;;;5036108;28;20033;-81
2022/04/16 14:34:32;;;;;;;6.95;4.03;;;;;;;;;;5044532;28;20383;-81
2022/04/16 14:36:58;;;;;;;6.32;3.70;;;;;;;;;;5054094;28;20032;-81
2022/04/16 14:39:24;;;;;;;7.82;4.03;;;;;;;;;;5028640;28;20033;-80
2022/04/16 14:41:50;;;;;;;6.88;3.65;;;;;;;;;;5030714;28;20034;-81
2022/04/16 14:44:17;;;;;;;7.47;3.70;;;;;;;;;;5026528;28;20483;-81
2022/04/16 14:46:43;;;;;;;7.82;5.10;;;;;;;;;;5040058;28;20036;-82
2022/04/16 14:49:10;;;;;;;6.60;3.97;;;;;;;;;;5046967;28;20129;-81
2022/04/16 14:51:39;;;;;;;8.13;4.10;;;;;;;;;;5037508;28;20033;-81
2022/04/16 14:54:06;;;;;;;7.05;3.85;;;;;;;;;;5028101;28;20031;-82
2022/04/16 14:56:32;;;;;;;7.50;4.55;;;;;;;;;;5037480;28;20488;-81
2022/04/16 14:58:58;;;;;;;7.80;4.00;;;;;;;;;;5017466;28;20485;-81
2022/04/16 15:01:24;;;;;;;7.32;3.90;;;;;;;;;;5016136;28;20028;-80
2022/04/16 15:03:50;;;;;;;6.75;4.30;;;;;;;;;;5031856;28;20057;-81
2022/04/16 15:06:16;;;;;;;7.57;4.65;;;;;;;;;;5048528;28;20052;-82
2022/04/16 15:08:42;;;;;;;6.88;4.22;;;;;;;;;;5032677;28;20055;-81
2022/04/16 15:11:08;;;;;;;6.28;4.18;;;;;;;;;;5015843;28;20026;-82